Time;durP1;ratioP1;P1;durP2;ratioP2;P2;SDS_P1;SDS_P2;PMS_P1;PMS_P2;Temp;Humidity;BMP_temperature;BMP_pressure;BME280_temperature;BME280_humidity;BME280_pressure;Samples;Min_cycle;Max_cycle;Signal;HPM_P1;HPM_P2
2023/10/02 00:03:29;;;;;;;19.87;12.40;;;;;;;;;;5040866;28;20279;-74
2023/10/02 00:05:55;;;;;;;17.97;11.63;;;;;;;;;;5024812;28;20192;-75
2023/10/02 00:08:41;;;;;;;19.70;12.40;;;;;;;;;;5019687;28;20181;-75
2023/10/02 00:11:35;;;;;;;17.20;11.63;;;;;;;;;;5036892;28;20196;-74
2023/10/02 00:14:18;;;;;;;18.87;11.93;;;;;;;;;;5025956;28;20216;-74
2023/10/02 00:16:42;;;;;;;17.43;11.17;;;;;;;;;;5049369;28;20198;-74
2023/10/02 00:19:23;;;;;;;15.47;12.07;;;;;;;;;;5035628;28;20173;-77
2023/10/02 00:21:50;;;;;;;18.37;12.03;;;;;;;;;;5004764;28;20184;-77
2023/10/02 00:24:16;;;;;;;17.67;12.40;;;;;;;;;;5014620;28;20204;-77
2023/10/02 00:26:42;;;;;;;18.53;12.27;;;;;;;;;;5018465;28;20287;-78
2023/10/02 00:29:09;;;;;;;17.87;12.87;;;;;;;;;;5002842;28;20200;-77
2023/10/02 00:31:37;;;;;;;16.53;12.00;;;;;;;;;;5002621;28;20253;-77
2023/10/02 00:34:04;;;;;;;19.00;12.43;;;;;;;;;;5018903;28;20219;-77
2023/10/02 00:36:30;;;;;;;17.20;12.50;;;;;;;;;;5011191;28;20177;-75
2023/10/02 00:42:10;;;;;;;16.70;12.07;;;;;;;;;;5021889;28;20192;-75
2023/10/02 00:47:35;;;;;;;22.53;12.87;;;;;;;;;;5034129;28;20202;-75
2023/10/02 00:50:06;;;;;;;16.73;12.30;;;;;;;;;;5024193;28;20230;-75
2023/10/02 00:52:33;;;;;;;18.23;12.20;;;;;;;;;;5014317;28;20201;-74
2023/10/02 00:55:05;;;;;;;18.53;12.60;;;;;;;;;;5031862;28;20183;-75
2023/10/02 00:57:35;;;;;;;17.80;12.27;;;;;;;;;;5031886;28;20208;-75
2023/10/02 01:00:06;;;;;;;20.50;11.70;;;;;;;;;;5018307;28;20181;-74
2023/10/02 01:02:34;;;;;;;17.97;11.87;;;;;;;;;;5031708;28;20273;-74
2023/10/02 01:05:00;;;;;;;16.87;11.70;;;;;;;;;;5045747;28;20214;-74
2023/10/02 01:07:28;;;;;;;19.10;11.97;;;;;;;;;;5049904;28;20189;-75
2023/10/02 01:10:11;;;;;;;17.30;11.43;;;;;;;;;;5002224;28;20184;-77
2023/10/02 01:12:43;;;;;;;17.30;11.93;;;;;;;;;;5004061;28;20212;-77
2023/10/02 01:15:12;;;;;;;19.10;11.57;;;;;;;;;;5049374;28;20173;-77
2023/10/02 01:17:41;;;;;;;17.07;11.27;;;;;;;;;;5035394;28;20184;-77
2023/10/02 01:20:20;;;;;;;17.67;11.93;;;;;;;;;;5026160;28;20226;-77
2023/10/02 01:22:51;;;;;;;19.93;12.70;;;;;;;;;;5037682;28;20183;-77
2023/10/02 01:25:23;;;;;;;16.70;11.43;;;;;;;;;;5044159;28;20192;-74
2023/10/02 01:27:56;;;;;;;15.33;11.73;;;;;;;;;;5035328;28;20185;-74
2023/10/02 01:30:23;;;;;;;16.77;11.80;;;;;;;;;;5029235;28;20187;-74
2023/10/02 01:33:06;;;;;;;18.03;11.67;;;;;;;;;;5051696;28;20273;-74
2023/10/02 01:35:36;;;;;;;19.63;12.97;;;;;;;;;;5034158;28;20200;-74
2023/10/02 01:38:06;;;;;;;18.60;12.30;;;;;;;;;;5016957;28;20184;-74
2023/10/02 01:40:35;;;;;;;16.63;12.20;;;;;;;;;;4998029;28;20193;-77
2023/10/02 01:43:14;;;;;;;19.43;13.07;;;;;;;;;;4982187;28;20233;-74
2023/10/02 01:45:43;;;;;;;18.47;11.83;;;;;;;;;;5000073;28;20181;-74
2023/10/02 01:48:14;;;;;;;18.40;12.17;;;;;;;;;;5001027;28;20191;-74
2023/10/02 01:50:42;;;;;;;15.50;11.87;;;;;;;;;;5017747;28;20195;-74
2023/10/02 01:53:29;;;;;;;16.77;11.30;;;;;;;;;;5017188;28;20307;-74
2023/10/02 01:56:00;;;;;;;20.00;11.93;;;;;;;;;;5016838;28;20207;-74
2023/10/02 01:58:27;;;;;;;19.37;11.70;;;;;;;;;;5033480;28;20248;-74
2023/10/02 02:00:53;;;;;;;18.80;11.43;;;;;;;;;;5036073;28;20192;-74
2023/10/02 02:03:19;;;;;;;19.83;12.50;;;;;;;;;;5021670;28;20199;-74
2023/10/02 02:05:46;;;;;;;16.33;11.53;;;;;;;;;;5029819;28;20181;-74
2023/10/02 02:08:21;;;;;;;16.83;12.03;;;;;;;;;;5025961;28;20196;-74
2023/10/02 02:10:51;;;;;;;16.77;11.50;;;;;;;;;;5013736;28;20242;-74
2023/10/02 02:13:19;;;;;;;18.60;12.53;;;;;;;;;;5033239;28;20208;-74
2023/10/02 02:15:45;;;;;;;18.53;12.20;;;;;;;;;;5016168;28;20181;-75
2023/10/02 02:18:14;;;;;;;18.77;12.07;;;;;;;;;;5016360;28;20184;-75
2023/10/02 02:20:58;;;;;;;19.70;12.00;;;;;;;;;;4999973;28;20185;-75
2023/10/02 02:23:26;;;;;;;17.73;12.07;;;;;;;;;;5031338;28;20195;-75
2023/10/02 02:25:52;;;;;;;18.13;11.93;;;;;;;;;;5015826;28;20185;-76
2023/10/02 02:28:18;;;;;;;17.47;11.90;;;;;;;;;;5015358;28;20253;-76
2023/10/02 02:30:44;;;;;;;18.47;12.37;;;;;;;;;;5016393;28;20275;-76
2023/10/02 02:33:12;;;;;;;19.57;12.47;;;;;;;;;;5023368;28;20219;-76
2023/10/02 02:35:41;;;;;;;19.07;11.70;;;;;;;;;;5019278;28;20188;-76
2023/10/02 02:38:14;;;;;;;18.83;11.47;;;;;;;;;;5015956;28;20196;-76
2023/10/02 02:40:41;;;;;;;17.17;11.43;;;;;;;;;;5022771;28;20196;-76
2023/10/02 02:43:19;;;;;;;14.93;11.33;;;;;;;;;;5016833;28;20188;-75
2023/10/02 02:45:45;;;;;;;15.70;10.67;;;;;;;;;;5005878;28;20199;-75
2023/10/02 02:48:12;;;;;;;16.30;11.27;;;;;;;;;;5005161;28;20195;-75
2023/10/02 02:50:42;;;;;;;14.60;11.00;;;;;;;;;;4998801;28;20192;-77
2023/10/02 02:53:22;;;;;;;17.07;11.07;;;;;;;;;;5017274;28;20204;-74
2023/10/02 02:56:14;;;;;;;15.43;11.40;;;;;;;;;;4997864;28;20184;-76
2023/10/02 02:58:51;;;;;;;15.97;11.00;;;;;;;;;;5111420;27;20542;-75
2023/10/02 03:01:24;;;;;;;16.10;10.93;;;;;;;;;;5110366;28;20182;-75
2023/10/02 03:03:51;;;;;;;15.73;11.10;;;;;;;;;;5112196;28;20190;-75
2023/10/02 03:06:24;;;;;;;15.33;11.10;;;;;;;;;;5091493;28;20182;-76
2023/10/02 03:08:53;;;;;;;17.10;10.63;;;;;;;;;;5108630;28;20182;-76
2023/10/02 03:11:20;;;;;;;17.13;10.90;;;;;;;;;;5106752;28;20190;-76
2023/10/02 03:13:49;;;;;;;15.97;11.00;;;;;;;;;;5109646;28;20189;-76
2023/10/02 03:16:28;;;;;;;17.13;11.20;;;;;;;;;;5093689;28;20269;-76
2023/10/02 03:18:54;;;;;;;21.07;11.37;;;;;;;;;;5111566;28;20173;-76
2023/10/02 03:21:24;;;;;;;14.43;10.63;;;;;;;;;;5108823;28;20209;-75
2023/10/02 03:23:51;;;;;;;15.37;10.73;;;;;;;;;;5098542;28;20182;-75
2023/10/02 03:26:27;;;;;;;15.33;10.87;;;;;;;;;;5106703;28;20175;-76
2023/10/02 03:29:00;;;;;;;15.80;10.30;;;;;;;;;;5097092;28;20197;-76
2023/10/02 03:31:34;;;;;;;19.13;10.53;;;;;;;;;;5108116;28;20185;-76
2023/10/02 03:34:01;;;;;;;17.40;10.10;;;;;;;;;;5100814;28;20194;-76
2023/10/02 03:36:27;;;;;;;14.53;10.13;;;;;;;;;;5090006;28;20181;-76
2023/10/02 03:38:57;;;;;;;17.90;10.80;;;;;;;;;;5089793;28;20187;-76
2023/10/02 03:41:44;;;;;;;17.60;10.97;;;;;;;;;;5090241;28;20186;-76
2023/10/02 03:44:09;;;;;;;15.97;10.57;;;;;;;;;;5108186;28;20194;-76
2023/10/02 03:46:40;;;;;;;17.93;11.20;;;;;;;;;;5110170;28;20316;-76
2023/10/02 03:49:06;;;;;;;16.40;10.90;;;;;;;;;;5093456;28;20193;-75
2023/10/02 03:51:40;;;;;;;16.77;10.83;;;;;;;;;;5104921;28;20171;-76
2023/10/02 03:54:17;;;;;;;20.73;10.97;;;;;;;;;;5089386;28;20182;-75
2023/10/02 03:56:56;;;;;;;16.20;10.90;;;;;;;;;;5108300;22;20258;-75
2023/10/02 03:59:27;;;;;;;17.50;11.70;;;;;;;;;;5070037;28;20254;-75
2023/10/02 04:01:53;;;;;;;18.77;11.83;;;;;;;;;;5057053;28;20168;-75
2023/10/02 04:04:21;;;;;;;20.70;12.27;;;;;;;;;;5086199;28;20182;-75
2023/10/02 04:06:49;;;;;;;18.07;12.33;;;;;;;;;;5072392;28;20185;-75
2023/10/02 04:11:42;;;;;;;19.67;13.13;;;;;;;;;;5055943;28;20202;-76
2023/10/02 04:14:17;;;;;;;16.60;12.57;;;;;;;;;;5072292;28;20195;-76
2023/10/02 04:17:01;;;;;;;19.23;12.73;;;;;;;;;;5060003;28;20256;-76
2023/10/02 04:19:27;;;;;;;18.40;12.23;;;;;;;;;;5055162;28;20176;-76
2023/10/02 04:21:56;;;;;;;18.97;12.47;;;;;;;;;;5058050;28;20210;-76
2023/10/02 04:24:26;;;;;;;18.37;11.83;;;;;;;;;;5067484;28;20188;-76
2023/10/02 04:27:14;;;;;;;17.87;12.07;;;;;;;;;;5071855;28;20198;-76
2023/10/02 04:29:48;;;;;;;20.03;12.27;;;;;;;;;;5066918;28;20196;-78
2023/10/02 04:32:15;;;;;;;19.00;11.20;;;;;;;;;;5057628;28;20191;-78
2023/10/02 04:34:56;;;;;;;17.93;12.60;;;;;;;;;;5058066;28;20187;-79
2023/10/02 04:37:22;;;;;;;16.70;11.30;;;;;;;;;;5075175;28;20211;-78
2023/10/02 04:42:57;;;;;;;17.53;12.10;;;;;;;;;;5056120;28;20226;-78
2023/10/02 04:45:21;;;;;;;17.37;12.20;;;;;;;;;;5056976;28;20184;-76
2023/10/02 04:47:54;;;;;;;16.70;11.87;;;;;;;;;;5074719;28;20179;-76
2023/10/02 04:55:44;;;;;;;17.60;11.80;;;;;;;;;;5059170;28;20206;-76
2023/10/02 04:58:14;;;;;;;19.10;12.00;;;;;;;;;;5035186;28;20227;-76
2023/10/02 05:03:27;;;;;;;18.73;12.50;;;;;;;;;;5075357;28;20217;-76
2023/10/02 05:05:54;;;;;;;17.93;11.37;;;;;;;;;;5057657;28;20229;-76
2023/10/02 05:08:21;;;;;;;18.73;11.73;;;;;;;;;;5038431;28;20260;-76
2023/10/02 05:10:56;;;;;;;17.00;11.40;;;;;;;;;;5054371;28;20180;-76
2023/10/02 05:16:11;;;;;;;16.30;11.70;;;;;;;;;;5055218;28;20195;-76
2023/10/02 05:18:37;;;;;;;18.80;11.67;;;;;;;;;;5054264;28;20250;-78
2023/10/02 05:21:04;;;;;;;19.53;12.60;;;;;;;;;;5053310;28;20168;-78
2023/10/02 05:23:30;;;;;;;16.90;11.80;;;;;;;;;;5054577;28;20176;-78
2023/10/02 05:26:05;;;;;;;19.80;12.63;;;;;;;;;;5054258;28;20172;-78
2023/10/02 05:28:44;;;;;;;17.40;11.47;;;;;;;;;;5054376;28;20180;-78
2023/10/02 05:31:16;;;;;;;20.00;12.53;;;;;;;;;;5055641;28;20176;-78
2023/10/02 05:33:43;;;;;;;17.70;13.03;;;;;;;;;;5054329;28;20237;-78
2023/10/02 05:36:10;;;;;;;18.73;12.40;;;;;;;;;;5037907;28;20211;-76
2023/10/02 05:38:38;;;;;;;18.10;12.47;;;;;;;;;;5054762;28;20225;-76
2023/10/02 05:41:12;;;;;;;19.43;13.23;;;;;;;;;;5034716;28;20227;-76
2023/10/02 05:43:55;;;;;;;18.10;12.17;;;;;;;;;;5034573;28;20176;-76
2023/10/02 05:46:21;;;;;;;19.60;13.20;;;;;;;;;;5034328;28;20276;-76
2023/10/02 05:49:00;;;;;;;17.40;12.30;;;;;;;;;;5033959;28;20185;-76
2023/10/02 05:51:45;;;;;;;19.33;12.33;;;;;;;;;;5034057;28;20180;-76
2023/10/02 05:54:11;;;;;;;17.83;11.47;;;;;;;;;;5033921;28;20279;-76
2023/10/02 05:56:37;;;;;;;15.73;11.23;;;;;;;;;;5033727;28;20378;-76
2023/10/02 05:59:03;;;;;;;20.13;12.87;;;;;;;;;;5050499;28;20230;-76
2023/10/02 06:01:34;;;;;;;19.77;12.90;;;;;;;;;;5033841;28;20204;-76
2023/10/02 06:04:00;;;;;;;23.37;13.73;;;;;;;;;;5049816;28;20179;-76
2023/10/02 06:06:36;;;;;;;20.50;12.70;;;;;;;;;;5050451;28;20260;-76
2023/10/02 06:09:12;;;;;;;22.10;12.63;;;;;;;;;;5034771;28;20176;-77
2023/10/02 06:11:59;;;;;;;23.77;13.67;;;;;;;;;;5034467;28;20180;-77
2023/10/02 06:14:25;;;;;;;19.60;13.67;;;;;;;;;;5034112;28;20177;-77
2023/10/02 06:16:52;;;;;;;24.87;13.23;;;;;;;;;;5033173;28;20200;-77
2023/10/02 06:19:19;;;;;;;25.30;13.47;;;;;;;;;;5033147;28;20184;-77
2023/10/02 06:21:46;;;;;;;24.93;14.70;;;;;;;;;;5033333;28;20172;-77
2023/10/02 06:24:17;;;;;;;22.97;14.30;;;;;;;;;;5033292;28;20173;-76
2023/10/02 06:27:44;;;;;;;31.20;16.57;;;;;;;;;;5033122;28;20198;-76
2023/10/02 06:29:38;;;;;;;25.60;14.50;;;;;;;;;;5037806;28;20184;-76
2023/10/02 06:32:05;;;;;;;24.57;15.07;;;;;;;;;;5034372;28;20204;-76
2023/10/02 06:34:38;;;;;;;22.27;14.30;;;;;;;;;;5033816;28;20181;-76
2023/10/02 06:37:07;;;;;;;22.50;14.23;;;;;;;;;;5033128;28;20201;-76
2023/10/02 06:39:35;;;;;;;21.27;13.47;;;;;;;;;;5033014;28;20180;-74
2023/10/02 06:42:12;;;;;;;22.17;11.87;;;;;;;;;;5033221;28;20181;-79
2023/10/02 06:44:41;;;;;;;62.00;17.23;;;;;;;;;;5033046;28;20183;-79
2023/10/02 06:47:13;;;;;;;36.00;15.83;;;;;;;;;;5044923;28;20196;-79
2023/10/02 06:49:46;;;;;;;34.57;14.90;;;;;;;;;;5037233;28;20188;-79
2023/10/02 06:52:18;;;;;;;34.60;14.87;;;;;;;;;;5053473;28;20394;-79
2023/10/02 06:54:56;;;;;;;36.10;15.33;;;;;;;;;;5037362;28;20278;-79
2023/10/02 06:57:24;;;;;;;39.07;15.20;;;;;;;;;;5052782;28;20243;-79
2023/10/02 06:59:51;;;;;;;30.97;15.07;;;;;;;;;;5053043;28;20246;-80
2023/10/02 07:02:21;;;;;;;29.77;14.93;;;;;;;;;;5065369;28;20210;-80
2023/10/02 07:04:48;;;;;;;22.37;13.20;;;;;;;;;;5075329;28;20188;-79
2023/10/02 07:07:21;;;;;;;26.67;14.17;;;;;;;;;;5074216;28;20182;-79
2023/10/02 07:09:48;;;;;;;29.13;14.10;;;;;;;;;;5057520;28;20187;-79
2023/10/02 07:12:14;;;;;;;26.17;14.17;;;;;;;;;;5053524;28;20271;-79
2023/10/02 07:14:42;;;;;;;28.73;15.50;;;;;;;;;;5053241;28;20206;-79
2023/10/02 07:17:16;;;;;;;25.33;15.07;;;;;;;;;;5053956;28;20192;-79
2023/10/02 07:19:48;;;;;;;30.63;16.10;;;;;;;;;;5037268;28;20184;-79
2023/10/02 07:22:16;;;;;;;27.63;15.43;;;;;;;;;;5053274;28;20176;-79
2023/10/02 07:24:46;;;;;;;27.77;16.37;;;;;;;;;;5053056;28;20172;-79
2023/10/02 07:27:24;;;;;;;27.33;16.10;;;;;;;;;;5054043;28;20263;-79
2023/10/02 07:30:00;;;;;;;32.10;16.43;;;;;;;;;;5037523;28;20207;-79
2023/10/02 07:32:27;;;;;;;30.23;16.47;;;;;;;;;;5052817;28;20183;-77
2023/10/02 07:34:54;;;;;;;29.63;16.60;;;;;;;;;;5053420;28;20225;-76
2023/10/02 07:37:21;;;;;;;30.87;16.67;;;;;;;;;;5048760;28;20244;-77
2023/10/02 07:39:56;;;;;;;26.20;15.27;;;;;;;;;;5036302;28;20249;-77
2023/10/02 07:42:23;;;;;;;28.17;16.17;;;;;;;;;;5054276;28;20164;-77
2023/10/02 07:44:49;;;;;;;25.83;16.50;;;;;;;;;;5056433;28;20214;-75
2023/10/02 07:47:18;;;;;;;30.40;15.77;;;;;;;;;;5056350;28;20211;-75
2023/10/02 07:49:47;;;;;;;28.03;16.47;;;;;;;;;;5056598;28;20180;-74
2023/10/02 07:52:26;;;;;;;24.50;15.60;;;;;;;;;;5057221;28;20263;-74
2023/10/02 07:54:58;;;;;;;27.53;16.87;;;;;;;;;;5031792;28;20196;-74
2023/10/02 07:57:30;;;;;;;28.13;16.27;;;;;;;;;;5020225;28;20236;-75
2023/10/02 07:59:57;;;;;;;30.53;16.93;;;;;;;;;;5037397;28;20165;-75
2023/10/02 08:02:23;;;;;;;28.03;15.60;;;;;;;;;;5036202;28;20191;-75
2023/10/02 08:04:51;;;;;;;27.03;16.40;;;;;;;;;;5036060;28;20181;-74
2023/10/02 08:07:21;;;;;;;31.57;16.90;;;;;;;;;;5019605;28;20181;-75
2023/10/02 08:09:47;;;;;;;27.13;16.43;;;;;;;;;;5035727;28;20184;-75
2023/10/02 08:12:29;;;;;;;27.67;17.07;;;;;;;;;;5035151;28;20187;-75
2023/10/02 08:15:01;;;;;;;33.00;16.93;;;;;;;;;;5036775;28;20236;-75
2023/10/02 08:17:59;;;;;;;28.73;17.07;;;;;;;;;;5036516;28;20208;-74
2023/10/02 08:20:16;;;;;;;26.07;17.50;;;;;;;;;;5036700;28;20185;-74
2023/10/02 08:22:46;;;;;;;28.47;17.27;;;;;;;;;;5051871;28;20227;-75
2023/10/02 08:25:13;;;;;;;27.47;16.87;;;;;;;;;;5051736;28;20173;-75
2023/10/02 08:27:55;;;;;;;29.23;16.40;;;;;;;;;;5035598;28;20204;-75
2023/10/02 08:30:31;;;;;;;28.87;16.87;;;;;;;;;;5035663;28;20176;-75
2023/10/02 08:33:09;;;;;;;29.03;17.43;;;;;;;;;;5035589;28;20252;-75
2023/10/02 08:35:41;;;;;;;28.93;16.73;;;;;;;;;;5035755;28;20180;-75
2023/10/02 08:38:21;;;;;;;27.27;16.47;;;;;;;;;;5035104;28;20208;-75
2023/10/02 08:40:56;;;;;;;30.80;16.83;;;;;;;;;;5036288;28;20160;-75
2023/10/02 08:43:23;;;;;;;31.90;16.80;;;;;;;;;;5034921;28;20198;-76
2023/10/02 08:45:50;;;;;;;25.93;16.73;;;;;;;;;;5035468;28;20185;-76
2023/10/02 08:48:19;;;;;;;30.03;17.60;;;;;;;;;;5035534;28;20189;-76
2023/10/02 08:50:47;;;;;;;27.23;17.30;;;;;;;;;;5035594;28;20207;-76
2023/10/02 08:53:20;;;;;;;29.07;16.67;;;;;;;;;;5036060;28;20188;-76
2023/10/02 08:58:22;;;;;;;29.73;16.97;;;;;;;;;;5036049;28;20259;-75
2023/10/02 09:03:43;;;;;;;24.30;15.90;;;;;;;;;;5036435;28;20180;-75
2023/10/02 09:06:25;;;;;;;28.13;16.40;;;;;;;;;;5036320;28;20207;-75
2023/10/02 09:11:36;;;;;;;30.23;17.20;;;;;;;;;;5036325;28;20190;-75
2023/10/02 09:14:15;;;;;;;30.47;16.97;;;;;;;;;;5035311;28;20180;-76
2023/10/02 09:16:41;;;;;;;24.20;16.27;;;;;;;;;;5035932;28;20206;-76
2023/10/02 09:19:28;;;;;;;28.80;17.13;;;;;;;;;;5035077;28;20185;-76
2023/10/02 09:22:06;;;;;;;28.23;17.63;;;;;;;;;;5035975;28;20200;-76
2023/10/02 09:24:36;;;;;;;27.33;17.03;;;;;;;;;;5036207;28;20275;-75
2023/10/02 09:29:49;;;;;;;26.07;16.70;;;;;;;;;;5035956;28;20197;-77
2023/10/02 09:32:24;;;;;;;30.47;18.07;;;;;;;;;;5035603;28;20188;-78
2023/10/02 09:35:10;;;;;;;27.60;16.67;;;;;;;;;;5035792;28;20275;-77
2023/10/02 09:37:38;;;;;;;25.87;17.53;;;;;;;;;;5035645;28;20204;-77
2023/10/02 09:40:17;;;;;;;28.53;17.53;;;;;;;;;;5051069;28;20181;-77
2023/10/02 09:42:46;;;;;;;30.07;18.03;;;;;;;;;;5035415;28;20184;-77
2023/10/02 09:45:15;;;;;;;27.90;17.50;;;;;;;;;;5051098;28;20184;-76
2023/10/02 09:47:42;;;;;;;29.20;17.37;;;;;;;;;;5051169;28;20222;-77
2023/10/02 09:50:25;;;;;;;26.50;17.53;;;;;;;;;;5034722;28;20200;-76
2023/10/02 09:53:08;;;;;;;28.60;18.03;;;;;;;;;;5035357;28;20176;-76
2023/10/02 09:55:40;;;;;;;25.93;16.83;;;;;;;;;;5050731;28;20203;-76
2023/10/02 09:58:26;;;;;;;24.13;16.63;;;;;;;;;;5050489;28;20225;-76
2023/10/02 10:03:52;;;;;;;28.60;17.27;;;;;;;;;;5035461;28;20225;-75
2023/10/02 10:06:19;;;;;;;28.13;17.73;;;;;;;;;;5033448;28;20257;-75
2023/10/02 10:12:21;;;;;;;26.73;17.00;;;;;;;;;;5034890;28;20188;-75
2023/10/02 10:14:54;;;;;;;26.27;16.80;;;;;;;;;;5067152;28;20188;-75
2023/10/02 10:17:21;;;;;;;25.27;16.00;;;;;;;;;;5033702;28;20208;-75
2023/10/02 10:20:09;;;;;;;26.20;16.60;;;;;;;;;;5034398;28;20188;-77
2023/10/02 10:22:35;;;;;;;27.23;16.37;;;;;;;;;;5034775;28;20176;-76
2023/10/02 10:27:42;;;;;;;27.50;17.60;;;;;;;;;;5034505;28;20406;-76
2023/10/02 10:30:28;;;;;;;23.77;16.73;;;;;;;;;;5033707;28;20173;-77
2023/10/02 10:35:57;;;;;;;26.83;16.33;;;;;;;;;;5035234;28;20184;-75
2023/10/02 10:38:26;;;;;;;24.83;17.10;;;;;;;;;;5033517;28;20432;-75
2023/10/02 10:41:00;;;;;;;27.25;16.38;;;;;;;;;;5033119;28;20184;-75
2023/10/02 10:43:43;;;;;;;26.17;17.90;;;;;;;;;;5033122;28;20406;-75
2023/10/02 10:46:12;;;;;;;27.23;17.35;;;;;;;;;;5033018;28;20424;-75
2023/10/02 10:48:40;;;;;;;28.40;17.38;;;;;;;;;;5033352;28;20417;-75
2023/10/02 10:51:20;;;;;;;25.85;16.98;;;;;;;;;;5033634;28;20180;-75
2023/10/02 10:53:54;;;;;;;28.10;17.25;;;;;;;;;;5034357;28;20165;-76
2023/10/02 10:56:22;;;;;;;27.10;16.83;;;;;;;;;;5046336;28;20237;-76
2023/10/02 10:58:52;;;;;;;27.98;17.58;;;;;;;;;;5036675;28;20241;-76
2023/10/02 11:01:20;;;;;;;27.30;17.63;;;;;;;;;;5053152;28;20180;-76
2023/10/02 11:03:54;;;;;;;28.63;17.38;;;;;;;;;;5049289;28;20185;-76
2023/10/02 11:06:23;;;;;;;28.27;17.90;;;;;;;;;;5033902;28;20401;-76
2023/10/02 11:09:12;;;;;;;26.42;17.05;;;;;;;;;;5033248;28;20180;-77
2023/10/02 11:11:50;;;;;;;29.33;16.73;;;;;;;;;;5034458;28;20195;-77
2023/10/02 11:14:35;;;;;;;29.58;16.60;;;;;;;;;;5033226;28;20173;-76
2023/10/02 11:17:04;;;;;;;26.15;17.23;;;;;;;;;;5033407;28;20429;-76
2023/10/02 11:22:02;;;;;;;26.92;17.63;;;;;;;;;;5038474;28;20252;-76
2023/10/02 11:24:29;;;;;;;27.40;18.30;;;;;;;;;;5037159;28;20177;-76
2023/10/02 11:27:06;;;;;;;25.88;17.52;;;;;;;;;;5036680;28;20226;-77
2023/10/02 11:29:40;;;;;;;29.05;19.05;;;;;;;;;;5036488;28;20413;-77
2023/10/02 11:32:22;;;;;;;27.58;16.33;;;;;;;;;;5036998;28;20169;-77
2023/10/02 11:34:59;;;;;;;25.25;16.42;;;;;;;;;;5039075;28;20176;-77
2023/10/02 11:37:26;;;;;;;27.02;17.88;;;;;;;;;;5037449;28;20467;-76
2023/10/02 11:39:52;;;;;;;30.17;18.70;;;;;;;;;;5036898;28;20181;-77
2023/10/02 11:42:19;;;;;;;30.58;17.73;;;;;;;;;;5043660;22;20231;-77
2023/10/02 11:44:45;;;;;;;28.40;17.05;;;;;;;;;;5037990;28;20173;-77
2023/10/02 11:47:12;;;;;;;25.48;17.58;;;;;;;;;;5038162;28;20179;-77
2023/10/02 11:49:38;;;;;;;25.23;17.25;;;;;;;;;;5038131;28;20173;-77
2023/10/02 11:52:05;;;;;;;25.48;17.23;;;;;;;;;;5036759;28;20183;-77
2023/10/02 11:54:39;;;;;;;22.75;16.55;;;;;;;;;;5036112;28;20172;-77
2023/10/02 11:57:08;;;;;;;23.52;16.10;;;;;;;;;;5020869;28;20199;-77
2023/10/02 11:59:34;;;;;;;24.35;15.85;;;;;;;;;;5037536;28;20165;-75
2023/10/02 12:02:01;;;;;;;25.50;16.65;;;;;;;;;;5036863;28;20215;-75
2023/10/02 12:04:27;;;;;;;29.60;18.73;;;;;;;;;;5036698;28;20427;-75
2023/10/02 12:06:55;;;;;;;28.67;18.58;;;;;;;;;;5020203;28;20476;-75
2023/10/02 12:09:24;;;;;;;25.48;16.52;;;;;;;;;;5020600;28;20268;-75
2023/10/02 12:11:50;;;;;;;26.70;16.50;;;;;;;;;;5036195;28;20169;-76
2023/10/02 12:14:16;;;;;;;23.98;16.35;;;;;;;;;;5037459;28;20195;-76
2023/10/02 12:16:43;;;;;;;26.67;17.45;;;;;;;;;;5019605;28;20267;-77
2023/10/02 12:19:10;;;;;;;29.45;16.05;;;;;;;;;;5019803;28;20176;-76
2023/10/02 12:21:36;;;;;;;27.33;16.60;;;;;;;;;;5019628;28;20208;-75
2023/10/02 12:24:04;;;;;;;26.45;17.48;;;;;;;;;;5036739;28;20209;-75
2023/10/02 12:26:30;;;;;;;33.40;16.77;;;;;;;;;;5036185;28;20183;-75
2023/10/02 12:28:56;;;;;;;29.80;16.58;;;;;;;;;;5035891;28;20173;-76
2023/10/02 12:31:23;;;;;;;29.23;17.95;;;;;;;;;;5035143;28;20420;-76
2023/10/02 12:33:52;;;;;;;29.33;17.92;;;;;;;;;;5019850;28;20183;-76
2023/10/02 12:36:22;;;;;;;25.70;17.80;;;;;;;;;;5034874;28;20496;-76
2023/10/02 12:38:50;;;;;;;27.70;18.70;;;;;;;;;;5035297;28;20430;-76
2023/10/02 12:41:20;;;;;;;28.02;18.65;;;;;;;;;;5035632;28;20177;-76
2023/10/02 12:43:46;;;;;;;26.25;16.98;;;;;;;;;;5035930;28;20185;-76
2023/10/02 12:46:16;;;;;;;28.70;18.27;;;;;;;;;;5036773;28;20180;-76
2023/10/02 12:48:43;;;;;;;29.77;18.48;;;;;;;;;;5036094;28;20173;-76
2023/10/02 12:51:09;;;;;;;26.58;18.05;;;;;;;;;;5035483;28;20211;-76
2023/10/02 12:53:38;;;;;;;29.87;19.73;;;;;;;;;;5018913;28;20509;-76
2023/10/02 12:56:05;;;;;;;28.52;19.70;;;;;;;;;;5035675;28;20230;-76
2023/10/02 12:58:31;;;;;;;31.02;19.38;;;;;;;;;;5035610;28;20278;-76
2023/10/02 13:00:57;;;;;;;30.23;19.27;;;;;;;;;;5019037;28;20211;-75
2023/10/02 13:03:24;;;;;;;27.45;18.20;;;;;;;;;;5013964;28;20182;-76
2023/10/02 13:05:50;;;;;;;31.73;19.60;;;;;;;;;;5017104;28;20169;-76
2023/10/02 13:08:16;;;;;;;27.48;18.83;;;;;;;;;;5015572;28;20192;-76
2023/10/02 13:10:42;;;;;;;31.75;19.80;;;;;;;;;;5015567;28;20189;-76
2023/10/02 13:13:08;;;;;;;28.58;18.88;;;;;;;;;;5015332;28;20189;-76
2023/10/02 13:15:35;;;;;;;29.73;20.27;;;;;;;;;;5015869;28;20201;-76
2023/10/02 13:18:01;;;;;;;28.55;19.48;;;;;;;;;;5015015;28;20205;-76
2023/10/02 13:20:27;;;;;;;32.88;20.35;;;;;;;;;;5016298;28;20177;-76
2023/10/02 13:22:54;;;;;;;30.55;20.50;;;;;;;;;;5015464;28;20178;-77
2023/10/02 13:25:23;;;;;;;31.33;20.50;;;;;;;;;;5015180;28;20256;-77
2023/10/02 13:27:50;;;;;;;30.55;19.23;;;;;;;;;;5014601;28;20181;-77
2023/10/02 13:30:25;;;;;;;30.88;19.40;;;;;;;;;;4998498;28;20239;-77
2023/10/02 13:32:51;;;;;;;29.83;19.30;;;;;;;;;;5015179;28;20208;-77
2023/10/02 13:35:17;;;;;;;32.92;20.10;;;;;;;;;;5014824;28;20188;-77
2023/10/02 13:37:44;;;;;;;33.47;22.42;;;;;;;;;;5023464;28;20447;-76
2023/10/02 13:40:32;;;;;;;32.63;19.52;;;;;;;;;;5034214;28;20184;-76
2023/10/02 13:42:58;;;;;;;35.20;20.85;;;;;;;;;;5032912;28;20282;-76
2023/10/02 13:45:25;;;;;;;30.38;19.17;;;;;;;;;;5050796;28;20260;-76
2023/10/02 13:47:54;;;;;;;29.77;20.08;;;;;;;;;;5050829;28;20181;-76
2023/10/02 13:50:21;;;;;;;30.00;19.75;;;;;;;;;;5034078;28;20177;-76
2023/10/02 13:52:51;;;;;;;31.35;20.15;;;;;;;;;;5034306;28;20243;-76
2023/10/02 13:55:22;;;;;;;29.33;19.20;;;;;;;;;;5034707;28;20206;-76
2023/10/02 13:57:48;;;;;;;31.10;19.48;;;;;;;;;;5034678;28;20216;-76
2023/10/02 14:00:17;;;;;;;27.70;19.02;;;;;;;;;;5034472;28;20267;-76
2023/10/02 14:02:45;;;;;;;29.67;19.63;;;;;;;;;;5034361;28;20173;-76
2023/10/02 14:05:12;;;;;;;29.35;18.42;;;;;;;;;;5035252;28;20168;-76
2023/10/02 14:07:39;;;;;;;29.15;18.48;;;;;;;;;;5034105;28;20191;-76
2023/10/02 14:10:06;;;;;;;27.45;17.70;;;;;;;;;;5034410;28;20176;-76
2023/10/02 14:12:32;;;;;;;27.55;17.48;;;;;;;;;;5035031;28;20230;-77
2023/10/02 14:14:59;;;;;;;27.25;17.33;;;;;;;;;;5033901;28;20259;-78
2023/10/02 14:17:25;;;;;;;27.88;18.42;;;;;;;;;;5017504;28;20246;-77
2023/10/02 14:19:51;;;;;;;29.05;19.00;;;;;;;;;;5018171;28;20184;-77
2023/10/02 14:22:17;;;;;;;29.05;19.73;;;;;;;;;;5033992;28;20199;-77
2023/10/02 14:24:43;;;;;;;32.90;20.95;;;;;;;;;;5033913;28;20172;-77
2023/10/02 14:27:10;;;;;;;32.78;21.95;;;;;;;;;;5017975;28;20185;-77
2023/10/02 14:29:36;;;;;;;31.33;21.75;;;;;;;;;;5035363;28;20260;-77
2023/10/02 14:32:02;;;;;;;39.17;20.52;;;;;;;;;;5033726;28;20196;-77
2023/10/02 14:34:30;;;;;;;31.75;22.13;;;;;;;;;;5017228;28;20224;-77
2023/10/02 14:36:56;;;;;;;37.13;22.40;;;;;;;;;;5013574;28;20189;-76
2023/10/02 14:39:30;;;;;;;35.38;21.60;;;;;;;;;;4997959;28;20174;-76
2023/10/02 14:41:56;;;;;;;34.10;21.23;;;;;;;;;;5013392;28;20243;-76
2023/10/02 14:44:23;;;;;;;32.22;21.05;;;;;;;;;;5014394;28;20264;-77
2023/10/02 14:46:50;;;;;;;33.35;21.92;;;;;;;;;;4998109;28;20181;-77
2023/10/02 14:49:16;;;;;;;34.08;21.45;;;;;;;;;;5013927;28;20189;-77
2023/10/02 14:51:44;;;;;;;31.20;21.05;;;;;;;;;;5014026;28;20173;-77
2023/10/02 14:54:10;;;;;;;33.67;21.58;;;;;;;;;;4997291;28;20177;-77
2023/10/02 14:56:36;;;;;;;35.08;21.27;;;;;;;;;;5013690;28;20182;-78
2023/10/02 14:59:04;;;;;;;30.25;20.70;;;;;;;;;;5013657;28;20259;-77
2023/10/02 15:01:30;;;;;;;30.90;20.77;;;;;;;;;;4997666;28;20189;-77
2023/10/02 15:03:56;;;;;;;31.40;20.67;;;;;;;;;;5014767;28;20173;-77
2023/10/02 15:06:22;;;;;;;31.50;20.40;;;;;;;;;;5013560;28;20177;-77
2023/10/02 15:08:48;;;;;;;33.60;20.65;;;;;;;;;;4996974;28;20200;-77
2023/10/02 15:11:14;;;;;;;34.70;21.33;;;;;;;;;;5013397;28;20217;-77
2023/10/02 15:13:40;;;;;;;33.15;19.92;;;;;;;;;;4997069;28;20197;-78
2023/10/02 15:16:14;;;;;;;29.67;20.45;;;;;;;;;;5014587;28;20181;-77
2023/10/02 15:18:41;;;;;;;28.92;20.08;;;;;;;;;;5013646;28;20205;-77
2023/10/02 15:21:08;;;;;;;30.13;19.65;;;;;;;;;;4997120;28;20182;-77
2023/10/02 15:23:34;;;;;;;28.95;18.92;;;;;;;;;;5014521;28;20165;-77
2023/10/02 15:26:00;;;;;;;28.13;19.05;;;;;;;;;;4997029;28;20262;-77